Ocracoke, NC

9:47 AM EDT on September 23, 2014 (GMT -0400)
Cherry Point Marine Corps Air Station | Change Station
CLOSE
Current Station
Airport
Location: Cherry Point,
Elevation: 26 ft
Nearby Weather Stations
Active Advisory: Beach Hazard Statement

Elev 26 ft 34.90 °N, 76.88 °W | Updated 53 minutes ago

Clear
Clear
69 °F
Feels Like 69 °F
N
16
Wind Variable Wind from NE

Today
High -- | Low -- °F
--% Chance of Precip.
Yesterday
High -- | Low -- °F
Precip. -- in
6:52 AM 6:59 PM
Waning Crescent, 0% visible
Pressure 30.19 in
Visibility 10.0 miles
Clouds Overcast 9000 ft
Dew Point 58 °F
Humidity 68%
Rainfall 0.00 in
Snow Depth Not available.
UV 1 out of 12
Pollen 5.30 out of 12
Air Quality Not available.
Flu Activity Not available.
METAR KNKT 231254Z 04014KT 10SM OVC090 21/14 A3020 RMK AO2 SLP224 T02060144

More Conditions Fewer Conditions

Pressure 30.19 in
Visibility 10.0 miles
Clouds Overcast 9000 ft
Dew Point 58 °F
Humidity 68%
Rainfall 0.00 in
Snow Depth Not available.
UV 1 out of 12
Pollen 5.30 out of 12
Air Quality Not available.
Flu Activity Not available.
METAR KNKT 231254Z 04014KT 10SM OVC090 21/14 A3020 RMK AO2 SLP224 T02060144

More Conditions Fewer Conditions

10-Day Weather Forecast

Almanac

Astronomy

Sep. 23, 2014 Rise Set
Actual Time 6:52 AM EDT 6:59 PM EDT
Civil Twilight 6:27 AM EDT 7:24 PM EDT
Nautical Twilight 5:57 AM EDT 7:54 PM EDT
Astronomical Twilight 5:27 AM EDT 8:23 PM EDT
Moon 6:15 AM EDT 6:37 PM EDT
Length of Visible Light 12h 57m
Length of Day
12h 06m
Tomorrow will be 2m 11s shorter.
Waning Crescent, 0% of the Moon is Illuminated
Today
Waning Crescent
Sep 24
New
Oct 1
First Quarter
Oct 8
Full
Oct 15
Last Quarter

Today's Extremes

State Highs State Lows

Community

WunderPhotos

Upload Photos

1,755,669 photos uploaded!

WunderBlogs® & News

Nearby

Snow Depth

Station Depth Elevation
No new snow has been reported.

Earthquake Activity

City Distance Mag. Time & Date
No recent earthquake activity has been reported nearby.
Minimum magnitude displayed is 2.5.

Coastal Water Temperatures

Place Temperature
Beaufort, NC 75.9 °F
Hatteras, NC 73.9 °F
Oregon Inlet Marina, NC 73.0 °F
Duck Pier, NC 73.9 °F
Johnny Mercer Pier, Wrightsville Beach, NC 80.1 °F

Nearby Weather Stations